createdAt,value
2023-05-07T00:00:10.480Z,8.71
2023-05-07T00:02:38.750Z,8.73
2023-05-07T00:05:16.378Z,8.75
2023-05-07T00:07:43.462Z,8.77
2023-05-07T00:10:12.009Z,8.77
2023-05-07T00:12:39.263Z,8.83
2023-05-07T00:15:07.146Z,8.70
2023-05-07T00:17:34.669Z,8.64
2023-05-07T00:20:01.531Z,8.57
2023-05-07T00:22:28.448Z,8.58
2023-05-07T00:24:55.821Z,8.55
2023-05-07T00:27:23.504Z,8.61
2023-05-07T00:29:50.828Z,8.45
2023-05-07T00:32:18.044Z,8.51
2023-05-07T00:34:45.341Z,8.55
2023-05-07T00:37:13.260Z,8.51
2023-05-07T00:39:40.451Z,8.30
2023-05-07T00:42:07.358Z,8.42
2023-05-07T00:44:34.298Z,8.50
2023-05-07T00:47:03.392Z,8.58
2023-05-07T00:49:42.363Z,8.61
2023-05-07T00:52:11.121Z,8.59
2023-05-07T00:54:38.408Z,8.64
2023-05-07T00:57:05.503Z,8.56
2023-05-07T00:59:33.568Z,8.54
2023-05-07T01:02:00.779Z,8.55
2023-05-07T01:04:28.207Z,8.65
2023-05-07T01:06:57.471Z,8.69
2023-05-07T01:09:26.619Z,8.72
2023-05-07T01:11:53.761Z,8.72
2023-05-07T01:14:21.792Z,8.58
2023-05-07T01:16:49.655Z,8.50
2023-05-07T01:19:19.613Z,8.53
2023-05-07T01:21:48.449Z,8.42
2023-05-07T01:24:17.970Z,8.41
2023-05-07T01:26:45.942Z,8.44
2023-05-07T01:29:15.348Z,8.53
2023-05-07T01:31:42.950Z,8.62
2023-05-07T01:34:12.367Z,8.63
2023-05-07T01:36:40.612Z,8.46
2023-05-07T01:39:07.827Z,8.44
2023-05-07T01:41:35.318Z,8.31
2023-05-07T01:44:02.864Z,8.19
2023-05-07T01:46:30.150Z,8.29
2023-05-07T01:48:57.143Z,8.31
2023-05-07T01:51:24.129Z,8.38
2023-05-07T01:53:52.255Z,8.34
2023-05-07T01:56:20.429Z,8.21
2023-05-07T01:58:48.041Z,8.31
2023-05-07T02:01:15.329Z,8.29
2023-05-07T02:03:43.536Z,8.32
2023-05-07T02:06:18.658Z,8.27
2023-05-07T02:08:45.617Z,8.36
2023-05-07T02:11:13.976Z,8.34
2023-05-07T02:13:41.061Z,8.26
2023-05-07T02:16:08.266Z,8.11
2023-05-07T02:18:37.041Z,8.25
2023-05-07T02:21:04.210Z,8.25
2023-05-07T02:23:31.177Z,8.28
2023-05-07T02:25:58.262Z,8.25
2023-05-07T02:28:25.547Z,8.04
2023-05-07T02:30:59.813Z,8.02
2023-05-07T02:33:27.729Z,8.12
2023-05-07T02:35:54.633Z,8.22
2023-05-07T02:38:21.691Z,8.25
2023-05-07T02:40:49.255Z,8.21
2023-05-07T02:43:17.210Z,8.20
2023-05-07T02:45:47.215Z,8.24
2023-05-07T02:48:15.315Z,8.12
2023-05-07T02:50:42.353Z,8.12
2023-05-07T02:53:09.621Z,8.15
2023-05-07T02:55:36.503Z,8.14
2023-05-07T02:58:04.163Z,8.16
2023-05-07T03:00:34.291Z,7.98
2023-05-07T03:03:12.194Z,8.04
2023-05-07T03:05:39.226Z,7.92
2023-05-07T03:08:06.410Z,7.95
2023-05-07T03:10:33.845Z,7.92
2023-05-07T03:13:01.235Z,7.95
2023-05-07T03:15:28.517Z,8.06
2023-05-07T03:17:55.700Z,7.95
2023-05-07T03:20:23.250Z,7.96
2023-05-07T03:22:50.344Z,8.01
2023-05-07T03:25:17.575Z,7.97
2023-05-07T03:27:44.934Z,8.02
2023-05-07T03:30:12.899Z,7.99
2023-05-07T03:32:40.096Z,7.97
2023-05-07T03:35:10.708Z,7.95
2023-05-07T03:37:37.623Z,8.02
2023-05-07T03:40:05.667Z,8.08
2023-05-07T03:42:41.050Z,8.12
2023-05-07T03:45:09.124Z,8.09
2023-05-07T03:47:37.225Z,8.10
2023-05-07T03:50:04.685Z,7.88
2023-05-07T03:52:32.093Z,7.93
2023-05-07T03:55:02.021Z,7.86
2023-05-07T03:57:30.829Z,7.85
2023-05-07T03:59:59.753Z,7.91
2023-05-07T04:02:29.183Z,7.95
2023-05-07T04:04:56.719Z,7.97
2023-05-07T04:07:23.791Z,7.94
2023-05-07T04:09:51.957Z,7.90
2023-05-07T04:12:19.184Z,7.95
2023-05-07T04:14:46.335Z,8.00
2023-05-07T04:17:13.832Z,7.94
2023-05-07T04:19:41.031Z,8.01
2023-05-07T04:22:07.977Z,8.05
2023-05-07T04:24:34.935Z,7.91
2023-05-07T04:27:03.203Z,7.87
2023-05-07T04:29:30.595Z,7.95
2023-05-07T04:31:57.806Z,8.02
2023-05-07T04:34:27.383Z,7.95
2023-05-07T04:36:54.573Z,7.79
2023-05-07T04:39:21.565Z,7.93
2023-05-07T04:41:50.166Z,8.02
2023-05-07T04:44:18.300Z,7.94
2023-05-07T04:46:45.952Z,8.01
2023-05-07T04:49:12.841Z,7.99
2023-05-07T04:51:40.330Z,8.04
2023-05-07T04:54:07.430Z,8.02
2023-05-07T04:56:34.407Z,8.12
2023-05-07T04:59:02.370Z,8.16
2023-05-07T05:01:30.094Z,8.15
2023-05-07T05:03:57.692Z,8.16
2023-05-07T05:06:24.894Z,8.16
2023-05-07T05:08:53.317Z,8.25
2023-05-07T05:11:21.162Z,8.35
2023-05-07T05:13:50.671Z,8.37
2023-05-07T05:16:20.599Z,8.28
2023-05-07T05:18:48.590Z,8.13
2023-05-07T05:21:18.805Z,8.14
2023-05-07T05:23:48.681Z,8.28
2023-05-07T05:26:19.912Z,8.22
2023-05-07T05:28:46.778Z,8.56
2023-05-07T05:31:15.612Z,8.57
2023-05-07T05:33:42.947Z,8.67
2023-05-07T05:36:14.409Z,8.58
2023-05-07T05:38:42.115Z,8.74
2023-05-07T05:41:11.983Z,8.83
2023-05-07T05:43:39.247Z,8.68
2023-05-07T05:46:06.352Z,8.73
2023-05-07T05:48:33.708Z,8.79
2023-05-07T05:51:02.314Z,8.91
2023-05-07T05:53:29.738Z,9.05
2023-05-07T05:55:56.884Z,9.07
2023-05-07T05:58:23.797Z,9.04
2023-05-07T06:00:57.846Z,8.96
2023-05-07T06:03:26.642Z,9.06
2023-05-07T06:05:55.029Z,8.98
2023-05-07T06:08:23.037Z,9.03
2023-05-07T06:10:51.227Z,9.16
2023-05-07T06:13:18.979Z,9.21
2023-05-07T06:15:46.988Z,9.36
2023-05-07T06:18:14.683Z,9.23
2023-05-07T06:20:42.666Z,9.28
2023-05-07T06:23:17.886Z,9.20
2023-05-07T06:25:51.681Z,9.13
2023-05-07T06:28:20.843Z,9.24
2023-05-07T06:30:48.561Z,9.27
2023-05-07T06:33:17.389Z,9.20
2023-05-07T06:35:44.304Z,9.24
2023-05-07T06:38:11.866Z,9.18
2023-05-07T06:40:39.619Z,9.31
2023-05-07T06:43:06.786Z,9.44
2023-05-07T06:45:47.341Z,9.38
2023-05-07T06:48:14.825Z,9.39
2023-05-07T06:50:51.318Z,9.34
2023-05-07T06:53:19.396Z,9.43
2023-05-07T06:55:46.441Z,9.42
2023-05-07T06:58:14.879Z,9.32
2023-05-07T07:00:42.317Z,9.31
2023-05-07T07:03:09.444Z,9.42
2023-05-07T07:05:36.785Z,9.38
2023-05-07T07:08:04.600Z,9.27
2023-05-07T07:10:31.517Z,9.31
2023-05-07T07:12:58.540Z,9.24
2023-05-07T07:15:26.389Z,9.24
2023-05-07T07:17:55.292Z,9.30
2023-05-07T07:20:23.363Z,9.42
2023-05-07T07:22:50.516Z,9.45
2023-05-07T07:25:18.320Z,9.55
2023-05-07T07:27:46.280Z,9.65
2023-05-07T07:30:14.874Z,9.61
2023-05-07T07:32:45.987Z,9.73
2023-05-07T07:35:12.874Z,9.69
2023-05-07T07:37:40.150Z,9.73
2023-05-07T07:40:08.097Z,9.81
2023-05-07T07:42:35.578Z,9.80
2023-05-07T07:45:02.791Z,9.88
2023-05-07T07:47:33.761Z,9.94
2023-05-07T07:50:00.777Z,10.14
2023-05-07T07:52:29.342Z,10.25
2023-05-07T07:54:56.327Z,10.25
2023-05-07T07:57:23.916Z,10.21
2023-05-07T07:59:51.826Z,10.24
2023-05-07T08:02:21.420Z,10.27
2023-05-07T08:04:50.301Z,10.34
2023-05-07T08:07:19.960Z,10.38
2023-05-07T08:09:48.759Z,10.37
2023-05-07T08:12:18.275Z,10.42
2023-05-07T08:14:45.305Z,10.50
2023-05-07T08:17:12.362Z,10.58
2023-05-07T08:19:39.325Z,10.66
2023-05-07T08:22:10.673Z,10.79
2023-05-07T08:24:37.959Z,10.79
2023-05-07T08:27:04.894Z,10.83
2023-05-07T08:29:32.477Z,10.77
2023-05-07T08:32:01.670Z,10.70
2023-05-07T08:34:28.656Z,10.73
2023-05-07T08:36:58.238Z,10.88
2023-05-07T08:39:26.143Z,11.07
2023-05-07T08:41:58.286Z,11.22
2023-05-07T08:44:31.349Z,11.31
2023-05-07T08:46:59.709Z,11.32
2023-05-07T08:49:27.320Z,11.39
2023-05-07T08:51:55.898Z,11.62
2023-05-07T08:54:24.356Z,11.82
2023-05-07T08:56:51.640Z,11.84
2023-05-07T08:59:19.661Z,11.92
2023-05-07T09:01:46.936Z,11.85
2023-05-07T09:04:14.843Z,11.89
2023-05-07T09:06:43.314Z,11.96
2023-05-07T09:09:15.821Z,12.02
2023-05-07T09:11:42.945Z,11.99
2023-05-07T09:14:10.595Z,11.86
2023-05-07T09:16:41.151Z,11.91
2023-05-07T09:19:09.084Z,12.08
2023-05-07T09:21:37.009Z,12.18
2023-05-07T09:24:07.567Z,12.20
2023-05-07T09:26:38.970Z,12.22
2023-05-07T09:29:07.505Z,12.23
2023-05-07T09:31:41.146Z,12.24
2023-05-07T09:34:10.639Z,12.15
2023-05-07T09:36:40.715Z,11.98
2023-05-07T09:39:07.637Z,11.96
2023-05-07T09:41:44.765Z,12.04
2023-05-07T09:44:18.010Z,12.13
2023-05-07T09:46:55.185Z,12.27
2023-05-07T09:49:31.153Z,12.30
2023-05-07T09:52:07.527Z,12.17
2023-05-07T09:54:39.044Z,12.33
2023-05-07T09:57:08.255Z,12.50
2023-05-07T09:59:36.054Z,12.46
2023-05-07T10:02:07.326Z,12.37
2023-05-07T10:04:41.710Z,12.45
2023-05-07T10:07:10.246Z,12.41
2023-05-07T10:09:39.908Z,12.42
2023-05-07T10:12:11.415Z,12.54
2023-05-07T10:14:38.481Z,12.48
2023-05-07T10:17:07.284Z,12.49
2023-05-07T10:19:34.347Z,12.54
2023-05-07T10:22:04.801Z,12.62
2023-05-07T10:24:38.728Z,12.72
2023-05-07T10:27:13.108Z,12.84
2023-05-07T10:30:00.774Z,12.95
2023-05-07T10:32:44.202Z,13.16
2023-05-07T10:35:28.552Z,13.44
2023-05-07T10:37:55.624Z,13.60
2023-05-07T10:40:25.745Z,13.75
2023-05-07T10:42:58.679Z,13.55
2023-05-07T10:45:26.896Z,13.58
2023-05-07T10:48:28.021Z,13.67
2023-05-07T10:51:21.106Z,13.81
2023-05-07T10:53:49.279Z,13.73
2023-05-07T10:56:21.510Z,13.76
2023-05-07T10:59:31.933Z,14.00
2023-05-07T11:02:05.604Z,14.01
2023-05-07T11:04:45.956Z,14.05
2023-05-07T11:07:29.146Z,14.06
2023-05-07T11:10:13.536Z,13.99
2023-05-07T11:12:54.091Z,13.74
2023-05-07T11:15:44.449Z,13.72
2023-05-07T11:18:21.799Z,13.67
2023-05-07T11:20:52.836Z,13.56
2023-05-07T11:23:34.387Z,13.59
2023-05-07T11:26:12.633Z,13.77
2023-05-07T11:28:42.401Z,13.66
2023-05-07T11:31:10.571Z,13.96
2023-05-07T11:33:38.875Z,14.25
2023-05-07T11:36:09.689Z,14.40
2023-05-07T11:38:42.082Z,14.62
2023-05-07T11:41:09.514Z,14.92
2023-05-07T11:43:37.269Z,14.95
2023-05-07T11:46:11.714Z,14.68
2023-05-07T11:48:39.660Z,15.03
2023-05-07T11:51:10.044Z,15.05
2023-05-07T11:53:39.088Z,14.95
2023-05-07T11:56:14.359Z,15.10
2023-05-07T11:58:42.829Z,15.29
2023-05-07T12:01:11.731Z,15.34
2023-05-07T12:03:43.951Z,15.43
2023-05-07T12:06:13.830Z,15.57
2023-05-07T12:08:42.495Z,15.76
2023-05-07T12:11:12.613Z,15.71
2023-05-07T12:13:39.696Z,15.41
2023-05-07T12:16:07.496Z,15.17
2023-05-07T12:18:35.873Z,14.92
2023-05-07T12:21:03.144Z,15.12
2023-05-07T12:23:35.939Z,15.29
2023-05-07T12:26:06.442Z,15.44
2023-05-07T12:28:41.030Z,15.76
2023-05-07T12:31:08.746Z,16.03
2023-05-07T12:33:36.500Z,15.98
2023-05-07T12:36:08.643Z,16.34
2023-05-07T12:38:38.197Z,16.50
2023-05-07T12:41:08.372Z,16.72
2023-05-07T12:43:35.670Z,16.99
2023-05-07T12:46:05.469Z,16.73
2023-05-07T12:48:33.574Z,16.61
2023-05-07T12:51:02.401Z,16.31
2023-05-07T12:53:30.686Z,16.15
2023-05-07T12:55:59.315Z,16.38
2023-05-07T12:58:29.069Z,16.53
2023-05-07T13:01:00.804Z,16.66
2023-05-07T13:03:29.452Z,16.80
2023-05-07T13:05:59.262Z,17.07
2023-05-07T13:08:27.413Z,16.96
2023-05-07T13:10:55.882Z,17.14
2023-05-07T13:13:23.114Z,17.23
2023-05-07T13:15:50.256Z,17.41
2023-05-07T13:18:17.426Z,17.70
2023-05-07T13:20:44.663Z,18.00
2023-05-07T13:23:11.560Z,18.02
2023-05-07T13:25:39.281Z,18.16
2023-05-07T13:28:10.764Z,18.23
2023-05-07T13:30:38.709Z,18.72
2023-05-07T13:33:05.742Z,18.91
2023-05-07T13:35:32.627Z,18.91
2023-05-07T13:37:59.662Z,19.14
2023-05-07T13:40:26.805Z,19.08
2023-05-07T13:42:54.592Z,18.74
2023-05-07T13:45:21.859Z,18.52
2023-05-07T13:47:50.762Z,17.75
2023-05-07T13:50:18.078Z,17.43
2023-05-07T13:52:51.995Z,17.42
2023-05-07T13:55:19.912Z,17.21
2023-05-07T13:57:47.621Z,17.34
2023-05-07T14:00:15.710Z,17.56
2023-05-07T14:02:42.762Z,18.12
2023-05-07T14:05:10.965Z,18.57
2023-05-07T14:07:37.985Z,19.21
2023-05-07T14:10:05.188Z,19.73
2023-05-07T14:12:33.388Z,19.85
2023-05-07T14:15:00.915Z,20.01
2023-05-07T14:17:28.353Z,20.19
2023-05-07T14:19:56.182Z,20.29
2023-05-07T14:22:23.896Z,20.97
2023-05-07T14:25:14.307Z,20.77
2023-05-07T14:27:38.434Z,21.02
2023-05-07T14:30:06.725Z,21.33
2023-05-07T14:32:34.756Z,21.64
2023-05-07T14:35:01.877Z,21.08
2023-05-07T14:37:29.489Z,20.93
2023-05-07T14:39:56.734Z,19.92
2023-05-07T14:42:23.530Z,19.57
2023-05-07T14:44:51.364Z,19.81
2023-05-07T14:47:19.939Z,20.44
2023-05-07T14:49:47.097Z,21.10
2023-05-07T14:52:13.990Z,20.17
2023-05-07T14:54:41.158Z,18.93
2023-05-07T14:57:10.825Z,18.49
2023-05-07T14:59:38.990Z,18.06
2023-05-07T15:02:09.229Z,18.42
2023-05-07T15:04:39.984Z,19.40
2023-05-07T15:07:06.872Z,20.28
2023-05-07T15:09:33.798Z,20.48
2023-05-07T15:12:01.491Z,21.12
2023-05-07T15:14:28.480Z,21.44
2023-05-07T15:16:55.285Z,21.53
2023-05-07T15:19:23.660Z,22.71
2023-05-07T15:21:50.542Z,22.92
2023-05-07T15:24:17.447Z,22.57
2023-05-07T15:26:44.317Z,20.36
2023-05-07T15:29:11.526Z,19.56
2023-05-07T15:31:40.241Z,19.14
2023-05-07T15:34:07.585Z,18.73
2023-05-07T15:36:34.617Z,18.48
2023-05-07T15:39:03.989Z,18.19
2023-05-07T15:41:31.754Z,17.70
2023-05-07T15:43:58.615Z,17.38
2023-05-07T15:46:26.371Z,16.78
2023-05-07T15:48:54.293Z,17.37
2023-05-07T15:51:21.483Z,18.27
2023-05-07T15:53:48.944Z,19.13
2023-05-07T15:56:16.123Z,19.00
2023-05-07T15:58:42.969Z,18.53
2023-05-07T16:01:09.869Z,17.86
2023-05-07T16:03:37.788Z,18.13
2023-05-07T16:06:08.369Z,18.45
2023-05-07T16:08:40.526Z,18.92
2023-05-07T16:11:07.807Z,18.56
2023-05-07T16:13:35.677Z,18.16
2023-05-07T16:16:03.139Z,17.45
2023-05-07T16:18:30.521Z,17.29
2023-05-07T16:20:58.386Z,17.33
2023-05-07T16:23:26.225Z,16.98
2023-05-07T16:25:53.616Z,16.57
2023-05-07T16:28:21.561Z,16.03
2023-05-07T16:30:49.452Z,16.32
2023-05-07T16:33:17.043Z,16.46
2023-05-07T16:35:47.809Z,16.68
2023-05-07T16:38:16.137Z,16.31
2023-05-07T16:40:43.153Z,16.08
2023-05-07T16:43:10.266Z,17.00
2023-05-07T16:45:37.315Z,17.81
2023-05-07T16:48:05.135Z,18.55
2023-05-07T16:50:32.148Z,19.19
2023-05-07T16:52:59.056Z,19.23
2023-05-07T16:55:25.997Z,19.56
2023-05-07T16:57:54.221Z,19.81
2023-05-07T17:00:21.297Z,19.44
2023-05-07T17:02:49.227Z,18.79
2023-05-07T17:05:16.311Z,17.97
2023-05-07T17:07:43.369Z,17.41
2023-05-07T17:10:10.577Z,16.98
2023-05-07T17:12:38.262Z,16.22
2023-05-07T17:15:06.397Z,15.88
2023-05-07T17:17:33.994Z,15.70
2023-05-07T17:20:02.664Z,15.95
2023-05-07T17:22:29.730Z,16.22
2023-05-07T17:24:58.260Z,16.34
2023-05-07T17:27:25.204Z,16.40
2023-05-07T17:29:52.508Z,16.39
2023-05-07T17:32:20.917Z,16.52
2023-05-07T17:34:47.992Z,16.65
2023-05-07T17:37:15.323Z,16.81
2023-05-07T17:39:42.524Z,16.66
2023-05-07T17:42:09.834Z,16.62
2023-05-07T17:44:37.057Z,16.77
2023-05-07T17:47:04.794Z,16.56
2023-05-07T17:49:31.943Z,16.43
2023-05-07T17:51:58.853Z,16.54
2023-05-07T17:54:27.322Z,16.48
2023-05-07T17:56:54.866Z,16.63
2023-05-07T17:59:21.829Z,16.73
2023-05-07T18:01:49.257Z,16.77
2023-05-07T18:04:16.982Z,16.50
2023-05-07T18:06:44.068Z,16.32
2023-05-07T18:09:12.522Z,16.29
2023-05-07T18:11:39.752Z,16.17
2023-05-07T18:14:06.745Z,16.13
2023-05-07T18:16:34.578Z,15.96
2023-05-07T18:19:02.809Z,15.76
2023-05-07T18:21:30.638Z,15.44
2023-05-07T18:23:58.231Z,15.33
2023-05-07T18:26:25.839Z,15.06
2023-05-07T18:28:54.076Z,14.72
2023-05-07T18:31:22.100Z,14.51
2023-05-07T18:33:53.693Z,14.40
2023-05-07T18:36:21.539Z,14.10
2023-05-07T18:38:49.034Z,13.77
2023-05-07T18:41:17.490Z,13.49
2023-05-07T18:43:44.396Z,13.17
2023-05-07T18:46:11.333Z,13.13
2023-05-07T18:48:38.274Z,13.06
2023-05-07T18:51:08.695Z,13.13
2023-05-07T18:53:37.079Z,12.84
2023-05-07T18:56:04.089Z,12.64
2023-05-07T18:58:30.904Z,12.65
2023-05-07T19:00:57.896Z,12.52
2023-05-07T19:03:24.920Z,12.44
2023-05-07T19:05:51.907Z,12.22
2023-05-07T19:08:19.001Z,12.05
2023-05-07T19:10:45.982Z,12.09
2023-05-07T19:13:12.919Z,12.23
2023-05-07T19:15:40.589Z,12.10
2023-05-07T19:18:08.263Z,12.12
2023-05-07T19:20:35.263Z,12.10
2023-05-07T19:23:02.337Z,12.02
2023-05-07T19:25:29.287Z,12.12
2023-05-07T19:27:57.413Z,12.00
2023-05-07T19:30:24.941Z,12.04
2023-05-07T19:32:52.335Z,12.10
2023-05-07T19:35:19.501Z,12.01
2023-05-07T19:37:46.645Z,11.86
2023-05-07T19:40:15.182Z,11.83
2023-05-07T19:42:42.194Z,11.70
2023-05-07T19:45:09.650Z,11.50
2023-05-07T19:47:36.902Z,11.46
2023-05-07T19:50:04.064Z,11.37
2023-05-07T19:52:30.997Z,11.44
2023-05-07T19:54:58.191Z,11.45
2023-05-07T19:57:25.152Z,11.45
2023-05-07T19:59:52.114Z,11.45
2023-05-07T20:02:19.453Z,11.35
2023-05-07T20:04:46.832Z,11.28
2023-05-07T20:07:13.918Z,11.28
2023-05-07T20:09:40.974Z,11.27
2023-05-07T20:12:10.756Z,11.28
2023-05-07T20:14:37.931Z,11.22
2023-05-07T20:17:05.119Z,11.18
2023-05-07T20:19:32.093Z,11.08
2023-05-07T20:21:59.159Z,11.01
2023-05-07T20:24:26.185Z,10.86
2023-05-07T20:26:53.153Z,10.87
2023-05-07T20:29:20.037Z,10.85
2023-05-07T20:31:47.046Z,10.74
2023-05-07T20:34:14.251Z,10.61
2023-05-07T20:36:41.844Z,10.66
2023-05-07T20:39:09.830Z,10.65
2023-05-07T20:41:38.289Z,10.61
2023-05-07T20:44:05.456Z,10.60
2023-05-07T20:46:32.512Z,10.57
2023-05-07T20:48:59.423Z,10.50
2023-05-07T20:51:27.442Z,10.47
2023-05-07T20:53:54.742Z,10.41
2023-05-07T20:56:25.058Z,10.45
2023-05-07T20:58:51.995Z,10.30
2023-05-07T21:01:19.008Z,10.25
2023-05-07T21:03:46.082Z,10.27
2023-05-07T21:06:12.893Z,10.32
2023-05-07T21:08:39.875Z,10.27
2023-05-07T21:11:06.935Z,10.26
2023-05-07T21:13:34.278Z,10.32
2023-05-07T21:16:01.404Z,10.28
2023-05-07T21:18:29.985Z,10.29
2023-05-07T21:20:57.460Z,10.28
2023-05-07T21:23:24.750Z,10.29
2023-05-07T21:25:52.123Z,10.22
2023-05-07T21:28:19.112Z,10.18
2023-05-07T21:30:47.615Z,10.17
2023-05-07T21:33:14.573Z,10.10
2023-05-07T21:35:41.795Z,10.05
2023-05-07T21:38:09.193Z,9.93
2023-05-07T21:40:37.009Z,9.91
2023-05-07T21:43:05.502Z,9.89
2023-05-07T21:45:32.366Z,9.91
2023-05-07T21:47:59.619Z,9.83
2023-05-07T21:50:27.211Z,9.89
2023-05-07T21:52:54.182Z,9.88
2023-05-07T21:55:21.320Z,9.85
2023-05-07T21:58:01.141Z,9.79
2023-05-07T22:00:32.181Z,9.71
2023-05-07T22:02:59.157Z,9.61
2023-05-07T22:05:26.134Z,9.71
2023-05-07T22:07:53.033Z,9.65
2023-05-07T22:10:23.182Z,9.61
2023-05-07T22:12:50.875Z,9.61
2023-05-07T22:15:18.016Z,9.56
2023-05-07T22:17:46.412Z,9.54
2023-05-07T22:20:13.599Z,9.55
2023-05-07T22:22:52.706Z,9.47
2023-05-07T22:25:24.081Z,9.43
2023-05-07T22:27:51.295Z,9.38
2023-05-07T22:30:18.830Z,9.43
2023-05-07T22:32:45.992Z,9.40
2023-05-07T22:35:12.982Z,9.33
2023-05-07T22:37:39.926Z,9.34
2023-05-07T22:40:07.694Z,9.29
2023-05-07T22:42:34.916Z,9.21
2023-05-07T22:45:01.850Z,9.24
2023-05-07T22:47:31.159Z,9.21
2023-05-07T22:49:58.497Z,9.19
2023-05-07T22:52:25.407Z,9.05
2023-05-07T22:54:54.199Z,9.08
2023-05-07T22:57:22.823Z,9.06
2023-05-07T22:59:54.913Z,9.16
2023-05-07T23:02:22.169Z,9.11
2023-05-07T23:04:49.132Z,8.99
2023-05-07T23:07:16.057Z,8.97
2023-05-07T23:09:43.294Z,8.89
2023-05-07T23:12:10.596Z,8.89
2023-05-07T23:14:38.123Z,8.91
2023-05-07T23:17:05.318Z,8.89
2023-05-07T23:19:32.316Z,8.82
2023-05-07T23:21:59.366Z,8.83
2023-05-07T23:24:26.663Z,8.77
2023-05-07T23:26:53.758Z,8.76
2023-05-07T23:29:21.243Z,8.78
2023-05-07T23:31:48.121Z,8.75
2023-05-07T23:34:24.238Z,8.74
2023-05-07T23:36:51.783Z,8.64
2023-05-07T23:39:19.277Z,8.59
2023-05-07T23:41:47.023Z,8.58
2023-05-07T23:44:13.931Z,8.58
2023-05-07T23:46:40.829Z,8.51
2023-05-07T23:49:07.816Z,8.58
2023-05-07T23:51:35.507Z,8.55
2023-05-07T23:54:02.715Z,8.44
2023-05-07T23:56:29.644Z,8.49
2023-05-07T23:58:56.770Z,8.44
